createdAt,value
2023-02-15T00:01:41.372Z,71.80
2023-02-15T00:04:09.498Z,71.97
2023-02-15T00:06:38.616Z,72.11
2023-02-15T00:09:06.417Z,72.24
2023-02-15T00:11:43.723Z,72.50
2023-02-15T00:14:13.452Z,72.52
2023-02-15T00:16:42.108Z,72.63
2023-02-15T00:19:10.663Z,72.24
2023-02-15T00:21:41.020Z,72.39
2023-02-15T00:24:10.332Z,72.12
2023-02-15T00:26:39.776Z,72.28
2023-02-15T00:29:07.922Z,71.94
2023-02-15T00:31:35.932Z,71.97
2023-02-15T00:34:04.693Z,72.00
2023-02-15T00:36:32.440Z,71.67
2023-02-15T00:39:01.567Z,71.79
2023-02-15T00:41:29.212Z,72.26
2023-02-15T00:43:56.863Z,72.67
2023-02-15T00:46:24.461Z,72.51
2023-02-15T00:48:52.192Z,72.32
2023-02-15T00:51:20.019Z,72.91
2023-02-15T00:53:47.829Z,72.81
2023-02-15T00:56:17.145Z,72.20
2023-02-15T00:58:45.103Z,72.16
2023-02-15T01:01:14.946Z,72.38
2023-02-15T01:03:43.560Z,72.02
2023-02-15T01:06:12.092Z,72.47
2023-02-15T01:08:39.843Z,72.62
2023-02-15T01:11:08.708Z,72.55
2023-02-15T01:13:37.893Z,72.04
2023-02-15T01:16:06.324Z,71.86
2023-02-15T01:18:34.981Z,71.99
2023-02-15T01:21:02.746Z,71.79
2023-02-15T01:23:30.439Z,71.55
2023-02-15T01:25:58.103Z,71.45
2023-02-15T01:28:25.785Z,71.47
2023-02-15T01:30:54.962Z,72.02
2023-02-15T01:33:22.783Z,71.39
2023-02-15T01:35:50.504Z,71.59
2023-02-15T01:38:18.214Z,71.76
2023-02-15T01:40:46.009Z,71.68
2023-02-15T01:43:14.360Z,71.64
2023-02-15T01:45:45.261Z,71.52
2023-02-15T01:48:22.260Z,71.92
2023-02-15T01:50:52.898Z,71.69
2023-02-15T01:53:23.815Z,71.95
2023-02-15T01:55:54.485Z,71.96
2023-02-15T01:58:23.283Z,72.33
2023-02-15T02:00:51.037Z,71.89
2023-02-15T02:03:20.818Z,72.05
2023-02-15T02:05:48.511Z,71.91
2023-02-15T02:08:16.222Z,71.31
2023-02-15T02:10:43.863Z,71.54
2023-02-15T02:13:11.484Z,71.50
2023-02-15T02:15:44.014Z,71.23
2023-02-15T02:18:23.598Z,71.22
2023-02-15T02:21:04.962Z,71.35
2023-02-15T02:23:40.215Z,71.27
2023-02-15T02:26:53.673Z,71.41
2023-02-15T02:29:55.720Z,71.81
2023-02-15T02:32:56.076Z,70.99
2023-02-15T02:35:30.954Z,70.85
2023-02-15T02:38:06.085Z,71.11
2023-02-15T02:40:43.838Z,70.86
2023-02-15T02:43:14.960Z,70.84
2023-02-15T02:45:46.430Z,71.04
2023-02-15T02:48:17.553Z,71.15
2023-02-15T02:50:46.630Z,71.36
2023-02-15T02:53:14.292Z,71.98
2023-02-15T02:55:44.290Z,71.55
2023-02-15T02:58:15.523Z,71.45
2023-02-15T03:00:47.156Z,71.36
2023-02-15T03:03:17.283Z,71.92
2023-02-15T03:05:49.812Z,71.43
2023-02-15T03:08:23.128Z,71.98
2023-02-15T03:10:53.347Z,71.86
2023-02-15T03:13:21.100Z,71.30
2023-02-15T03:16:06.580Z,71.32
2023-02-15T03:18:38.942Z,71.32
2023-02-15T03:21:08.756Z,71.48
2023-02-15T03:23:37.961Z,71.39
2023-02-15T03:26:08.200Z,71.48
2023-02-15T03:28:40.294Z,71.59
2023-02-15T03:31:09.065Z,71.62
2023-02-15T03:33:38.273Z,71.91
2023-02-15T03:36:12.184Z,71.64
2023-02-15T03:38:45.390Z,71.89
2023-02-15T03:41:14.459Z,71.85
2023-02-15T03:43:47.719Z,71.66
2023-02-15T03:46:19.835Z,72.18
2023-02-15T03:48:50.204Z,72.12
2023-02-15T03:51:37.335Z,72.42
2023-02-15T03:54:07.642Z,72.90
2023-02-15T03:56:36.111Z,72.09
2023-02-15T03:59:33.059Z,71.71
2023-02-15T04:02:10.448Z,71.61
2023-02-15T04:04:39.285Z,71.49
2023-02-15T04:07:10.294Z,71.55
2023-02-15T04:09:57.891Z,71.52
2023-02-15T04:12:26.036Z,71.95
2023-02-15T04:15:11.650Z,71.94
2023-02-15T04:17:39.690Z,71.96
2023-02-15T04:20:26.197Z,71.73
2023-02-15T04:23:12.812Z,71.71
2023-02-15T04:25:40.865Z,71.66
2023-02-15T04:28:09.135Z,71.82
2023-02-15T04:30:36.905Z,71.82
2023-02-15T04:33:04.798Z,71.70
2023-02-15T04:35:32.730Z,71.88
2023-02-15T04:38:01.850Z,71.76
2023-02-15T04:40:29.696Z,72.04
2023-02-15T04:42:57.391Z,71.97
2023-02-15T04:45:25.079Z,71.78
2023-02-15T04:47:52.922Z,71.84
2023-02-15T04:50:20.657Z,71.74
2023-02-15T04:52:48.445Z,72.17
2023-02-15T04:55:17.681Z,72.32
2023-02-15T04:57:45.363Z,71.98
2023-02-15T05:00:13.745Z,71.99
2023-02-15T05:02:41.478Z,72.10
2023-02-15T05:05:10.429Z,71.95
2023-02-15T05:07:38.098Z,71.96
2023-02-15T05:10:06.531Z,72.03
2023-02-15T05:12:35.570Z,72.00
2023-02-15T05:15:03.251Z,72.15
2023-02-15T05:17:30.968Z,72.35
2023-02-15T05:19:58.738Z,72.42
2023-02-15T05:22:26.448Z,72.31
2023-02-15T05:25:11.754Z,72.31
2023-02-15T05:27:58.482Z,72.17
2023-02-15T05:30:26.704Z,72.39
2023-02-15T05:32:54.544Z,72.29
2023-02-15T05:35:22.243Z,72.11
2023-02-15T05:37:49.982Z,72.07
2023-02-15T05:40:17.909Z,72.25
2023-02-15T05:42:47.011Z,72.55
2023-02-15T05:45:14.661Z,72.38
2023-02-15T05:47:42.354Z,72.64
2023-02-15T05:50:11.119Z,72.34
2023-02-15T05:52:38.860Z,72.18
2023-02-15T05:55:07.979Z,72.73
2023-02-15T05:57:35.698Z,72.65
2023-02-15T06:00:06.007Z,72.38
2023-02-15T06:02:35.626Z,72.63
2023-02-15T06:05:03.353Z,72.85
2023-02-15T06:07:31.119Z,72.70
2023-02-15T06:09:58.749Z,72.71
2023-02-15T06:12:26.686Z,72.90
2023-02-15T06:14:54.371Z,72.69
2023-02-15T06:17:23.619Z,73.31
2023-02-15T06:19:51.301Z,72.92
2023-02-15T06:22:19.013Z,72.87
2023-02-15T06:24:46.631Z,73.24
2023-02-15T06:27:14.301Z,73.06
2023-02-15T06:29:42.087Z,73.02
2023-02-15T06:32:09.854Z,73.14
2023-02-15T06:34:38.946Z,73.04
2023-02-15T06:37:06.601Z,72.77
2023-02-15T06:39:34.430Z,72.53
2023-02-15T06:42:02.150Z,73.14
2023-02-15T06:44:29.824Z,73.46
2023-02-15T06:46:57.493Z,73.28
2023-02-15T06:49:25.191Z,73.49
2023-02-15T06:51:54.285Z,74.02
2023-02-15T06:54:22.011Z,73.70
2023-02-15T06:56:49.680Z,73.85
2023-02-15T06:59:17.515Z,74.30
2023-02-15T07:01:45.285Z,74.29
2023-02-15T07:04:12.975Z,74.35
2023-02-15T07:06:40.640Z,74.22
2023-02-15T07:09:09.748Z,74.55
2023-02-15T07:11:54.705Z,74.35
2023-02-15T07:14:22.498Z,74.91
2023-02-15T07:16:50.211Z,75.35
2023-02-15T07:19:18.586Z,74.85
2023-02-15T07:21:46.559Z,75.18
2023-02-15T07:24:15.981Z,74.90
2023-02-15T07:26:43.666Z,75.02
2023-02-15T07:29:11.296Z,74.48
2023-02-15T07:31:38.920Z,74.70
2023-02-15T07:34:07.941Z,75.83
2023-02-15T07:36:35.644Z,76.29
2023-02-15T07:39:03.327Z,76.59
2023-02-15T07:41:32.347Z,76.99
2023-02-15T07:44:00.015Z,76.63
2023-02-15T07:46:27.646Z,76.96
2023-02-15T07:48:55.331Z,77.48
2023-02-15T07:51:23.011Z,77.88
2023-02-15T07:53:52.490Z,78.02
2023-02-15T07:56:20.185Z,78.23
2023-02-15T07:58:56.719Z,78.65
2023-02-15T08:01:27.243Z,78.85
2023-02-15T08:03:55.485Z,78.85
2023-02-15T08:06:24.183Z,79.45
2023-02-15T08:08:51.931Z,79.66
2023-02-15T08:11:37.505Z,79.63
2023-02-15T08:14:08.493Z,79.95
2023-02-15T08:16:38.785Z,80.50
2023-02-15T08:19:08.839Z,80.50
2023-02-15T08:21:37.927Z,80.44
2023-02-15T08:24:06.785Z,80.28
2023-02-15T08:26:35.103Z,80.58
2023-02-15T08:29:03.383Z,80.71
2023-02-15T08:31:32.614Z,80.81
2023-02-15T08:34:00.567Z,80.95
2023-02-15T08:36:29.629Z,80.84
2023-02-15T08:38:58.962Z,81.00
2023-02-15T08:41:28.541Z,80.89
2023-02-15T08:43:57.840Z,81.10
2023-02-15T08:46:26.869Z,81.10
2023-02-15T08:48:55.879Z,80.55
2023-02-15T08:51:25.683Z,81.15
2023-02-15T08:53:55.095Z,81.13
2023-02-15T08:56:24.242Z,80.84
2023-02-15T08:58:51.975Z,80.82
2023-02-15T09:01:21.197Z,80.82
2023-02-15T09:03:50.234Z,80.29
2023-02-15T09:06:19.507Z,80.13
2023-02-15T09:08:47.470Z,80.29
2023-02-15T09:11:17.662Z,80.34
2023-02-15T09:13:46.105Z,80.53
2023-02-15T09:16:13.818Z,80.57
2023-02-15T09:18:42.071Z,79.97
2023-02-15T09:21:11.988Z,80.30
2023-02-15T09:23:41.348Z,80.18
2023-02-15T09:26:10.984Z,80.23
2023-02-15T09:28:39.018Z,80.04
2023-02-15T09:31:11.801Z,80.13
2023-02-15T09:33:40.234Z,79.75
2023-02-15T09:36:15.608Z,79.85
2023-02-15T09:38:44.893Z,79.03
2023-02-15T09:41:25.106Z,79.18
2023-02-15T09:43:57.971Z,79.42
2023-02-15T09:46:39.253Z,79.74
2023-02-15T09:49:12.623Z,79.21
2023-02-15T09:52:08.413Z,78.91
2023-02-15T09:54:48.294Z,78.83
2023-02-15T09:57:23.344Z,78.31
2023-02-15T09:59:56.942Z,78.03
2023-02-15T10:02:34.124Z,78.40
2023-02-15T10:05:13.474Z,77.87
2023-02-15T10:07:56.091Z,77.89
2023-02-15T10:10:31.604Z,78.34
2023-02-15T10:13:11.848Z,78.88
2023-02-15T10:15:52.478Z,78.42
2023-02-15T10:18:39.337Z,78.05
2023-02-15T10:21:12.481Z,78.50
2023-02-15T10:24:00.367Z,78.36
2023-02-15T10:26:35.216Z,77.67
2023-02-15T10:29:05.539Z,77.61
2023-02-15T10:31:40.235Z,76.15
2023-02-15T10:34:18.236Z,76.59
2023-02-15T10:37:12.252Z,76.57
2023-02-15T10:39:45.202Z,76.40
2023-02-15T10:42:20.387Z,76.80
2023-02-15T10:45:01.109Z,76.56
2023-02-15T10:47:48.243Z,75.68
2023-02-15T10:50:30.322Z,75.35
2023-02-15T10:53:10.191Z,74.71
2023-02-15T10:55:45.383Z,75.92
2023-02-15T10:58:19.401Z,74.54
2023-02-15T11:00:48.893Z,74.68
2023-02-15T11:03:28.135Z,76.43
2023-02-15T11:06:03.869Z,75.50
2023-02-15T11:08:33.751Z,74.90
2023-02-15T11:11:03.884Z,75.32
2023-02-15T11:13:35.808Z,75.73
2023-02-15T11:16:07.518Z,75.44
2023-02-15T11:18:38.530Z,74.63
2023-02-15T11:21:09.370Z,75.57
2023-02-15T11:23:38.398Z,75.50
2023-02-15T11:26:15.550Z,75.13
2023-02-15T11:28:48.999Z,72.38
2023-02-15T11:31:20.350Z,72.15
2023-02-15T11:33:51.175Z,69.76
2023-02-15T11:36:21.837Z,70.85
2023-02-15T11:38:51.611Z,72.74
2023-02-15T11:41:22.198Z,70.45
2023-02-15T11:43:56.179Z,70.29
2023-02-15T11:46:24.036Z,71.68
2023-02-15T11:48:51.837Z,71.35
2023-02-15T11:51:23.836Z,69.66
2023-02-15T11:53:52.518Z,66.85
2023-02-15T11:56:22.998Z,67.33
2023-02-15T11:58:55.060Z,69.02
2023-02-15T12:01:27.005Z,67.53
2023-02-15T12:03:57.402Z,67.50
2023-02-15T12:06:27.364Z,67.43
2023-02-15T12:08:59.911Z,69.32
2023-02-15T12:11:32.538Z,66.98
2023-02-15T12:14:03.315Z,65.46
2023-02-15T12:16:35.753Z,66.11
2023-02-15T12:19:04.352Z,68.68
2023-02-15T12:21:35.448Z,67.58
2023-02-15T12:24:06.082Z,66.77
2023-02-15T12:26:36.297Z,65.97
2023-02-15T12:29:17.592Z,65.35
2023-02-15T12:31:47.302Z,64.39
2023-02-15T12:34:22.142Z,63.97
2023-02-15T12:36:51.729Z,65.93
2023-02-15T12:39:54.214Z,64.55
2023-02-15T12:42:22.692Z,65.41
2023-02-15T12:44:59.005Z,64.35
2023-02-15T12:47:30.698Z,63.36
2023-02-15T12:50:19.444Z,64.19
2023-02-15T12:52:49.608Z,63.60
2023-02-15T12:55:24.672Z,63.19
2023-02-15T12:58:07.482Z,63.70
2023-02-15T13:00:35.702Z,64.20
2023-02-15T13:03:03.825Z,63.88
2023-02-15T13:05:34.951Z,64.45
2023-02-15T13:08:05.177Z,63.96
2023-02-15T13:10:37.690Z,63.71
2023-02-15T13:13:11.755Z,63.21
2023-02-15T13:15:41.332Z,64.17
2023-02-15T13:18:16.478Z,66.11
2023-02-15T13:20:46.127Z,66.05
2023-02-15T13:23:25.073Z,65.00
2023-02-15T13:25:54.317Z,63.26
2023-02-15T13:28:25.494Z,63.85
2023-02-15T13:30:53.327Z,63.25
2023-02-15T13:33:27.569Z,64.81
2023-02-15T13:36:04.805Z,62.80
2023-02-15T13:38:48.739Z,61.97
2023-02-15T13:41:22.010Z,62.99
2023-02-15T13:43:58.594Z,61.79
2023-02-15T13:46:38.019Z,62.29
2023-02-15T13:49:15.215Z,62.14
2023-02-15T13:51:46.236Z,62.44
2023-02-15T13:54:31.162Z,62.72
2023-02-15T13:57:09.509Z,62.90
2023-02-15T13:59:47.615Z,62.59
2023-02-15T14:02:37.297Z,62.20
2023-02-15T14:05:17.983Z,63.55
2023-02-15T14:07:53.820Z,62.94
2023-02-15T14:10:29.008Z,62.72
2023-02-15T14:13:22.095Z,63.21
2023-02-15T14:15:52.946Z,63.66
2023-02-15T14:18:25.210Z,62.85
2023-02-15T14:21:02.390Z,63.57
2023-02-15T14:23:39.708Z,62.56
2023-02-15T14:26:12.405Z,62.53
2023-02-15T14:28:46.014Z,63.00
2023-02-15T14:31:15.697Z,62.57
2023-02-15T14:33:45.454Z,62.98
2023-02-15T14:36:17.081Z,63.17
2023-02-15T14:38:52.288Z,62.91
2023-02-15T14:41:20.957Z,63.07
2023-02-15T14:43:57.637Z,62.99
2023-02-15T14:46:29.975Z,63.12
2023-02-15T14:48:59.167Z,64.05
2023-02-15T14:51:59.842Z,63.49
2023-02-15T14:54:57.502Z,63.23
2023-02-15T14:57:36.364Z,62.49
2023-02-15T15:00:47.080Z,61.98
2023-02-15T15:03:23.595Z,62.43
2023-02-15T15:05:53.897Z,62.65
2023-02-15T15:08:30.231Z,63.09
2023-02-15T15:10:57.913Z,63.17
2023-02-15T15:13:56.359Z,63.34
2023-02-15T15:16:49.537Z,64.60
2023-02-15T15:20:05.915Z,63.76
2023-02-15T15:22:35.410Z,62.88
2023-02-15T15:25:03.525Z,63.16
2023-02-15T15:27:55.004Z,63.02
2023-02-15T15:30:52.017Z,63.26
2023-02-15T15:33:47.054Z,63.21
2023-02-15T15:36:31.463Z,63.45
2023-02-15T15:39:04.776Z,63.42
2023-02-15T15:41:43.010Z,63.61
2023-02-15T15:44:35.131Z,63.33
2023-02-15T15:47:16.882Z,63.92
2023-02-15T15:49:46.074Z,64.06
2023-02-15T15:52:16.314Z,64.42
2023-02-15T15:54:44.533Z,64.11
2023-02-15T15:57:17.675Z,64.17
2023-02-15T15:59:46.960Z,64.75
2023-02-15T16:02:17.911Z,64.72
2023-02-15T16:04:48.554Z,64.83
2023-02-15T16:07:25.434Z,65.33
2023-02-15T16:09:56.979Z,65.34
2023-02-15T16:12:25.487Z,65.60
2023-02-15T16:14:54.519Z,65.18
2023-02-15T16:17:25.343Z,65.66
2023-02-15T16:19:55.433Z,65.51
2023-02-15T16:22:24.921Z,65.61
2023-02-15T16:25:16.039Z,65.91
2023-02-15T16:27:44.590Z,65.58
2023-02-15T16:30:26.772Z,65.70
2023-02-15T16:32:56.835Z,65.54
2023-02-15T16:35:26.062Z,65.82
2023-02-15T16:37:53.738Z,65.53
2023-02-15T16:40:38.040Z,65.99
2023-02-15T16:43:08.577Z,65.99
2023-02-15T16:45:38.080Z,66.13
2023-02-15T16:48:08.543Z,66.11
2023-02-15T16:50:39.616Z,66.14
2023-02-15T16:53:09.055Z,66.33
2023-02-15T16:55:40.643Z,66.26
2023-02-15T16:58:09.242Z,66.28
2023-02-15T17:00:38.807Z,66.06
2023-02-15T17:03:07.924Z,66.27
2023-02-15T17:05:43.445Z,66.68
2023-02-15T17:08:18.092Z,66.45
2023-02-15T17:10:48.555Z,66.96
2023-02-15T17:13:16.983Z,67.04
2023-02-15T17:15:46.143Z,66.95
2023-02-15T17:18:18.708Z,66.70
2023-02-15T17:20:48.779Z,66.96
2023-02-15T17:23:25.176Z,67.22
2023-02-15T17:25:53.769Z,67.06
2023-02-15T17:28:23.000Z,67.30
2023-02-15T17:30:51.994Z,66.98
2023-02-15T17:33:22.961Z,67.26
2023-02-15T17:36:08.232Z,67.42
2023-02-15T17:38:35.936Z,67.70
2023-02-15T17:41:04.088Z,67.23
2023-02-15T17:43:32.074Z,67.41
2023-02-15T17:46:00.158Z,67.44
2023-02-15T17:48:32.980Z,67.57
2023-02-15T17:51:02.405Z,67.64
2023-02-15T17:53:31.889Z,67.51
2023-02-15T17:55:58.724Z,67.51
2023-02-15T17:58:26.467Z,67.66
2023-02-15T18:01:14.730Z,67.53
2023-02-15T18:04:01.591Z,67.57
2023-02-15T18:06:46.858Z,67.71
2023-02-15T18:09:35.681Z,67.67
2023-02-15T18:12:04.312Z,67.65
2023-02-15T18:14:32.395Z,68.09
2023-02-15T18:17:00.129Z,68.08
2023-02-15T18:19:28.345Z,67.88
2023-02-15T18:21:57.789Z,67.99
2023-02-15T18:24:27.674Z,67.60
2023-02-15T18:26:55.883Z,67.80
2023-02-15T18:29:23.652Z,67.93
2023-02-15T18:31:54.554Z,67.93
2023-02-15T18:34:25.247Z,67.80
2023-02-15T18:36:53.539Z,67.99
2023-02-15T18:39:35.048Z,67.83
2023-02-15T18:42:04.038Z,68.26
2023-02-15T18:44:31.858Z,68.24
2023-02-15T18:46:59.564Z,68.20
2023-02-15T18:49:27.237Z,68.10
2023-02-15T18:51:55.124Z,68.21
2023-02-15T18:54:25.012Z,68.36
2023-02-15T18:56:57.056Z,68.08
2023-02-15T18:59:26.421Z,68.67
2023-02-15T19:01:54.635Z,68.45
2023-02-15T19:04:24.859Z,68.47
2023-02-15T19:06:53.514Z,68.77
2023-02-15T19:09:23.141Z,68.79
2023-02-15T19:11:52.388Z,68.95
2023-02-15T19:14:27.355Z,68.67
2023-02-15T19:16:56.331Z,68.85
2023-02-15T19:19:24.171Z,69.07
2023-02-15T19:21:52.374Z,69.10
2023-02-15T19:24:24.675Z,68.99
2023-02-15T19:26:53.052Z,69.15
2023-02-15T19:29:26.202Z,69.16
2023-02-15T19:31:54.116Z,68.88
2023-02-15T19:34:22.032Z,69.25
2023-02-15T19:36:51.632Z,69.22
2023-02-15T19:39:24.834Z,69.53
2023-02-15T19:41:52.923Z,69.37
2023-02-15T19:44:20.914Z,69.52
2023-02-15T19:46:50.070Z,69.78
2023-02-15T19:49:17.816Z,69.68
2023-02-15T19:51:45.594Z,69.85
2023-02-15T19:54:29.405Z,69.66
2023-02-15T19:56:57.414Z,69.70
2023-02-15T19:59:26.409Z,69.78
2023-02-15T20:01:55.970Z,69.98
2023-02-15T20:04:24.261Z,70.20
2023-02-15T20:06:52.832Z,70.06
2023-02-15T20:09:24.063Z,70.07
2023-02-15T20:11:52.411Z,70.53
2023-02-15T20:14:20.723Z,70.13
2023-02-15T20:16:48.637Z,70.67
2023-02-15T20:19:17.778Z,70.67
2023-02-15T20:21:47.040Z,70.48
2023-02-15T20:24:17.098Z,70.66
2023-02-15T20:26:45.226Z,70.56
2023-02-15T20:29:15.146Z,70.94
2023-02-15T20:31:43.485Z,70.69
2023-02-15T20:34:11.887Z,70.82
2023-02-15T20:36:41.405Z,70.71
2023-02-15T20:39:15.437Z,71.10
2023-02-15T20:41:47.727Z,70.93
2023-02-15T20:44:21.289Z,71.12
2023-02-15T20:46:49.901Z,71.18
2023-02-15T20:49:17.634Z,71.29
2023-02-15T20:51:47.511Z,71.28
2023-02-15T20:54:16.802Z,71.36
2023-02-15T20:56:44.658Z,71.26
2023-02-15T20:59:22.353Z,71.44
2023-02-15T21:01:50.393Z,71.38
2023-02-15T21:04:19.816Z,71.72
2023-02-15T21:06:48.954Z,71.98
2023-02-15T21:09:17.280Z,71.61
2023-02-15T21:11:45.556Z,71.98
2023-02-15T21:14:18.352Z,71.97
2023-02-15T21:16:46.156Z,71.88
2023-02-15T21:19:15.277Z,71.89
2023-02-15T21:21:43.201Z,72.16
2023-02-15T21:24:16.134Z,72.21
2023-02-15T21:26:46.238Z,72.22
2023-02-15T21:29:18.637Z,72.14
2023-02-15T21:31:46.564Z,72.62
2023-02-15T21:34:14.428Z,72.51
2023-02-15T21:36:43.064Z,72.79
2023-02-15T21:39:16.946Z,72.58
2023-02-15T21:42:04.426Z,72.45
2023-02-15T21:44:49.741Z,72.75
2023-02-15T21:47:37.515Z,72.72
2023-02-15T21:50:26.318Z,72.54
2023-02-15T21:52:53.126Z,72.67
2023-02-15T21:55:22.229Z,72.68
2023-02-15T21:57:50.045Z,73.00
2023-02-15T22:00:19.204Z,72.61
2023-02-15T22:02:48.498Z,72.97
2023-02-15T22:05:18.398Z,72.89
2023-02-15T22:07:46.681Z,72.91
2023-02-15T22:10:14.985Z,72.85
2023-02-15T22:12:44.665Z,72.74
2023-02-15T22:15:19.742Z,73.04
2023-02-15T22:17:47.632Z,73.24
2023-02-15T22:20:18.838Z,72.95
2023-02-15T22:22:46.830Z,72.91
2023-02-15T22:25:15.528Z,72.96
2023-02-15T22:27:45.736Z,73.25
2023-02-15T22:30:21.458Z,73.11
2023-02-15T22:32:49.191Z,73.08
2023-02-15T22:35:21.567Z,73.22
2023-02-15T22:37:49.160Z,73.11
2023-02-15T22:40:17.040Z,73.30
2023-02-15T22:42:47.584Z,73.56
2023-02-15T22:45:18.692Z,73.67
2023-02-15T22:47:47.355Z,73.61
2023-02-15T22:50:20.218Z,73.51
2023-02-15T22:52:48.753Z,73.53
2023-02-15T22:55:17.082Z,73.54
2023-02-15T22:57:47.769Z,73.73
2023-02-15T23:00:18.746Z,73.48
2023-02-15T23:02:46.682Z,74.00
2023-02-15T23:05:19.149Z,74.01
2023-02-15T23:07:47.651Z,73.74
2023-02-15T23:10:22.125Z,73.71
2023-02-15T23:13:10.686Z,73.91
2023-02-15T23:15:38.853Z,74.26
2023-02-15T23:18:18.081Z,74.20
2023-02-15T23:20:46.684Z,74.43
2023-02-15T23:23:15.346Z,74.50
2023-02-15T23:25:43.273Z,74.55
2023-02-15T23:28:20.765Z,74.61
2023-02-15T23:30:48.869Z,74.39
2023-02-15T23:33:16.697Z,74.61
2023-02-15T23:35:44.381Z,74.35
2023-02-15T23:38:19.982Z,74.60
2023-02-15T23:41:08.337Z,74.30
2023-02-15T23:43:37.682Z,74.39
2023-02-15T23:46:06.571Z,74.59
2023-02-15T23:48:36.991Z,74.43
2023-02-15T23:51:05.575Z,74.89
2023-02-15T23:53:33.965Z,74.79
2023-02-15T23:56:01.842Z,74.83
2023-02-15T23:58:35.979Z,75.25
